createdAt,value
2022-10-23T00:00:50.419Z,2.25
2022-10-23T00:03:16.892Z,2.38
2022-10-23T00:05:43.370Z,1.52
2022-10-23T00:08:09.755Z,1.90
2022-10-23T00:10:36.249Z,1.98
2022-10-23T00:13:02.841Z,2.25
2022-10-23T00:15:29.277Z,2.00
2022-10-23T00:17:55.682Z,2.33
2022-10-23T00:20:22.462Z,1.50
2022-10-23T00:22:48.843Z,2.00
2022-10-23T00:25:16.355Z,1.50
2022-10-23T00:27:43.403Z,1.88
2022-10-23T00:30:10.756Z,1.65
2022-10-23T00:32:37.297Z,1.50
2022-10-23T00:35:04.395Z,1.60
2022-10-23T00:37:30.836Z,1.65
2022-10-23T00:39:57.371Z,1.25
2022-10-23T00:42:24.003Z,1.58
2022-10-23T00:44:50.332Z,1.15
2022-10-23T00:47:17.270Z,1.20
2022-10-23T00:49:43.771Z,1.10
2022-10-23T00:52:12.772Z,1.00
2022-10-23T00:54:42.132Z,1.45
2022-10-23T00:57:13.069Z,1.30
2022-10-23T00:59:40.012Z,1.10
2022-10-23T01:02:06.617Z,1.35
2022-10-23T01:04:33.872Z,1.05
2022-10-23T01:07:22.156Z,1.08
2022-10-23T01:10:15.057Z,1.10
2022-10-23T01:12:47.376Z,1.05
2022-10-23T01:15:43.078Z,1.08
2022-10-23T01:18:12.295Z,0.90
2022-10-23T01:20:48.730Z,1.23
2022-10-23T01:23:52.331Z,1.10
2022-10-23T01:26:33.524Z,1.00
2022-10-23T01:29:14.869Z,1.17
2022-10-23T01:31:56.943Z,1.42
2022-10-23T01:34:30.662Z,1.35
2022-10-23T01:37:01.733Z,1.10
2022-10-23T01:39:35.889Z,0.90
2022-10-23T01:42:11.362Z,1.67
2022-10-23T01:44:45.545Z,1.00
2022-10-23T01:47:14.020Z,0.90
2022-10-23T01:49:53.529Z,1.15
2022-10-23T01:52:22.554Z,0.90
2022-10-23T01:54:53.484Z,1.15
2022-10-23T01:57:22.686Z,1.00
2022-10-23T02:00:01.551Z,1.05
2022-10-23T02:02:30.822Z,0.90
2022-10-23T02:05:03.318Z,0.95
2022-10-23T02:07:30.247Z,0.98
2022-10-23T02:09:57.561Z,0.90
2022-10-23T02:12:53.952Z,0.90
2022-10-23T02:15:37.611Z,0.70
2022-10-23T02:18:30.907Z,0.80
2022-10-23T02:21:28.994Z,0.80
2022-10-23T02:24:07.455Z,0.70
2022-10-23T02:26:42.363Z,0.85
2022-10-23T02:29:24.932Z,0.70
2022-10-23T02:31:51.372Z,0.70
2022-10-23T02:34:19.217Z,0.80
2022-10-23T02:36:46.144Z,0.90
2022-10-23T02:39:12.801Z,0.80
2022-10-23T02:41:46.896Z,0.80
2022-10-23T02:44:40.625Z,0.77
2022-10-23T02:47:21.239Z,0.80
2022-10-23T02:50:06.866Z,0.80
2022-10-23T02:52:58.170Z,0.65
2022-10-23T02:55:30.509Z,0.90
2022-10-23T02:58:04.131Z,0.70
2022-10-23T03:00:33.036Z,0.77
2022-10-23T03:03:05.908Z,0.75
2022-10-23T03:05:36.285Z,0.70
2022-10-23T03:08:05.041Z,0.70
2022-10-23T03:10:31.488Z,0.77
2022-10-23T03:12:57.893Z,0.70
2022-10-23T03:15:25.029Z,0.80
2022-10-23T03:17:52.050Z,1.00
2022-10-23T03:20:18.491Z,0.88
2022-10-23T03:22:45.723Z,0.73
2022-10-23T03:25:12.764Z,0.90
2022-10-23T03:27:39.161Z,0.90
2022-10-23T03:30:09.814Z,0.80
2022-10-23T03:32:38.572Z,1.30
2022-10-23T03:35:05.956Z,1.13
2022-10-23T03:37:32.706Z,1.65
2022-10-23T03:40:00.894Z,1.35
2022-10-23T03:42:30.643Z,0.82
2022-10-23T03:44:57.085Z,0.90
2022-10-23T03:47:23.964Z,0.70
2022-10-23T03:49:50.391Z,0.77
2022-10-23T03:52:16.970Z,0.90
2022-10-23T03:54:43.448Z,1.02
2022-10-23T03:57:10.608Z,0.88
2022-10-23T03:59:37.059Z,0.70
2022-10-23T04:02:05.526Z,0.95
2022-10-23T04:04:32.007Z,0.77
2022-10-23T04:06:59.287Z,0.90
2022-10-23T04:09:26.481Z,1.15
2022-10-23T04:11:52.902Z,1.17
2022-10-23T04:14:19.294Z,1.00
2022-10-23T04:16:46.823Z,0.90
2022-10-23T04:19:13.266Z,1.40
2022-10-23T04:21:40.856Z,1.10
2022-10-23T04:24:07.501Z,1.27
2022-10-23T04:26:34.058Z,1.40
2022-10-23T04:29:00.446Z,1.50
2022-10-23T04:31:28.540Z,1.50
2022-10-23T04:33:55.355Z,1.50
2022-10-23T04:36:28.909Z,1.40
2022-10-23T04:38:58.282Z,1.80
2022-10-23T04:41:24.733Z,1.85
2022-10-23T04:43:51.258Z,1.10
2022-10-23T04:46:17.722Z,1.23
2022-10-23T04:48:46.920Z,1.40
2022-10-23T04:51:46.110Z,1.20
2022-10-23T04:54:36.542Z,1.08
2022-10-23T04:57:20.984Z,2.10
2022-10-23T05:00:07.723Z,2.47
2022-10-23T05:02:48.210Z,2.83
2022-10-23T05:05:17.410Z,3.00
2022-10-23T05:07:56.711Z,2.80
2022-10-23T05:10:38.034Z,2.90
2022-10-23T05:13:11.076Z,2.55
2022-10-23T05:15:39.183Z,2.10
2022-10-23T05:18:13.058Z,2.70
2022-10-23T05:20:40.330Z,1.65
2022-10-23T05:23:11.408Z,1.15
2022-10-23T05:25:38.253Z,1.27
2022-10-23T05:28:13.738Z,1.20
2022-10-23T05:30:41.755Z,1.58
2022-10-23T05:33:10.122Z,1.58
2022-10-23T05:35:42.171Z,1.73
2022-10-23T05:38:09.313Z,0.90
2022-10-23T05:43:14.664Z,0.60
2022-10-23T05:45:50.096Z,0.80
2022-10-23T05:48:35.630Z,1.30
2022-10-23T05:51:22.156Z,1.30
2022-10-23T05:53:56.861Z,1.30
2022-10-23T05:56:41.433Z,0.82
2022-10-23T06:01:56.153Z,1.10
2022-10-23T06:04:38.761Z,0.98
2022-10-23T06:07:32.327Z,1.08
2022-10-23T06:10:05.127Z,0.85
2022-10-23T06:12:34.238Z,0.90
2022-10-23T06:15:00.863Z,0.95
2022-10-23T06:17:43.653Z,1.33
2022-10-23T06:20:10.937Z,1.30
2022-10-23T06:22:40.207Z,1.27
2022-10-23T06:25:22.250Z,1.17
2022-10-23T06:27:50.899Z,0.90
2022-10-23T06:30:17.753Z,0.77
2022-10-23T06:32:46.436Z,0.80
2022-10-23T06:35:14.551Z,1.45
2022-10-23T06:37:41.050Z,0.88
2022-10-23T06:40:30.203Z,1.02
2022-10-23T06:43:03.550Z,0.80
2022-10-23T06:45:40.621Z,1.13
2022-10-23T06:48:13.345Z,1.20
2022-10-23T06:50:56.095Z,1.17
2022-10-23T06:53:33.482Z,1.20
2022-10-23T06:56:08.349Z,2.03
2022-10-23T06:58:38.158Z,4.15
2022-10-23T07:01:16.238Z,3.55
2022-10-23T07:03:44.287Z,3.28
2022-10-23T07:06:11.745Z,3.90
2022-10-23T07:08:38.942Z,4.03
2022-10-23T07:11:20.637Z,4.20
2022-10-23T07:13:48.812Z,4.13
2022-10-23T07:16:22.592Z,4.20
2022-10-23T07:18:58.667Z,2.85
2022-10-23T07:21:35.565Z,2.60
2022-10-23T07:24:17.556Z,3.17
2022-10-23T07:26:44.774Z,3.63
2022-10-23T07:29:12.567Z,3.78
2022-10-23T07:31:39.377Z,3.08
2022-10-23T07:34:40.998Z,3.08
2022-10-23T07:37:29.977Z,3.70
2022-10-23T07:39:58.750Z,2.42
2022-10-23T07:42:25.529Z,2.80
2022-10-23T07:44:52.029Z,2.42
2022-10-23T07:47:18.469Z,3.03
2022-10-23T07:49:49.055Z,2.42
2022-10-23T07:52:15.799Z,2.33
2022-10-23T07:55:18.088Z,2.40
2022-10-23T07:57:48.729Z,2.45
2022-10-23T08:00:25.624Z,2.20
2022-10-23T08:03:00.124Z,2.50
2022-10-23T08:05:26.893Z,2.42
2022-10-23T08:07:58.412Z,1.65
2022-10-23T08:10:24.894Z,1.73
2022-10-23T08:12:51.911Z,1.65
2022-10-23T08:15:21.562Z,2.10
2022-10-23T08:17:56.402Z,1.40
2022-10-23T08:20:39.905Z,12.13
2022-10-23T08:23:07.459Z,10.40
2022-10-23T08:25:35.949Z,7.18
2022-10-23T08:28:05.490Z,2.80
2022-10-23T08:30:38.878Z,1.92
2022-10-23T08:33:07.223Z,1.70
2022-10-23T08:35:39.882Z,1.58
2022-10-23T08:38:07.772Z,1.35
2022-10-23T08:40:45.300Z,1.10
2022-10-23T08:43:30.099Z,1.17
2022-10-23T08:46:15.290Z,0.75
2022-10-23T08:49:17.651Z,0.77
2022-10-23T08:51:53.570Z,0.63
2022-10-23T08:54:33.034Z,0.70
2022-10-23T08:57:14.710Z,0.70
2022-10-23T08:59:47.770Z,0.70
2022-10-23T09:02:24.183Z,0.80
2022-10-23T09:04:53.617Z,0.90
2022-10-23T09:07:26.490Z,0.63
2022-10-23T09:10:07.682Z,1.80
2022-10-23T09:12:34.069Z,1.30
2022-10-23T09:15:26.124Z,1.10
2022-10-23T09:18:01.965Z,0.90
2022-10-23T09:20:35.739Z,0.68
2022-10-23T09:23:07.776Z,0.90
2022-10-23T09:25:38.274Z,0.70
2022-10-23T09:28:05.772Z,0.70
2022-10-23T09:30:41.970Z,0.80
2022-10-23T09:35:59.954Z,0.88
2022-10-23T09:38:27.570Z,0.90
2022-10-23T09:40:54.077Z,0.65
2022-10-23T09:43:23.284Z,0.73
2022-10-23T09:45:58.914Z,0.90
2022-10-23T09:48:26.143Z,0.98
2022-10-23T09:50:59.790Z,0.90
2022-10-23T09:53:34.226Z,0.80
2022-10-23T09:56:11.616Z,0.70
2022-10-23T09:58:54.442Z,0.80
2022-10-23T10:01:25.668Z,1.10
2022-10-23T10:03:55.513Z,0.90
2022-10-23T10:06:33.265Z,0.70
2022-10-23T10:09:03.750Z,0.60
2022-10-23T10:11:51.631Z,0.80
2022-10-23T10:14:34.779Z,0.90
2022-10-23T10:17:19.749Z,0.88
2022-10-23T10:19:56.597Z,0.60
2022-10-23T10:22:39.365Z,0.60
2022-10-23T10:25:24.967Z,0.68
2022-10-23T10:28:16.337Z,0.60
2022-10-23T10:31:17.749Z,0.68
2022-10-23T10:33:52.838Z,0.90
2022-10-23T10:36:34.493Z,0.60
2022-10-23T10:39:03.722Z,0.60
2022-10-23T10:41:37.605Z,0.70
2022-10-23T10:44:32.352Z,0.60
2022-10-23T10:47:09.784Z,0.63
2022-10-23T10:49:46.233Z,0.50
2022-10-23T10:52:34.224Z,0.63
2022-10-23T10:55:25.296Z,0.50
2022-10-23T10:58:03.779Z,0.50
2022-10-23T11:00:33.329Z,0.50
2022-10-23T11:03:21.811Z,0.60
2022-10-23T11:05:50.535Z,0.47
2022-10-23T11:08:27.814Z,0.50
2022-10-23T11:10:58.727Z,0.70
2022-10-23T11:13:40.410Z,0.60
2022-10-23T11:16:12.903Z,0.70
2022-10-23T11:18:43.006Z,0.45
2022-10-23T11:21:18.755Z,0.50
2022-10-23T11:23:57.587Z,0.70
2022-10-23T11:26:35.191Z,0.45
2022-10-23T11:29:20.737Z,1.05
2022-10-23T11:32:02.181Z,1.03
2022-10-23T11:34:50.780Z,0.80
2022-10-23T11:37:19.357Z,0.50
2022-10-23T11:40:07.518Z,0.60
2022-10-23T11:42:39.991Z,0.50
2022-10-23T11:45:26.252Z,0.70
2022-10-23T11:48:16.591Z,0.60
2022-10-23T11:50:46.102Z,0.40
2022-10-23T11:53:48.110Z,0.60
2022-10-23T11:56:19.393Z,0.77
2022-10-23T11:58:49.663Z,0.40
2022-10-23T12:01:29.835Z,1.20
2022-10-23T12:04:14.557Z,0.70
2022-10-23T12:06:51.092Z,0.70
2022-10-23T12:09:26.287Z,0.50
2022-10-23T12:12:15.122Z,0.47
2022-10-23T12:14:49.973Z,0.50
2022-10-23T12:17:22.587Z,0.60
2022-10-23T12:19:55.903Z,0.52
2022-10-23T12:22:28.228Z,0.50
2022-10-23T12:25:07.886Z,0.50
2022-10-23T12:27:45.810Z,0.40
2022-10-23T12:30:22.371Z,0.60
2022-10-23T12:33:13.146Z,0.70
2022-10-23T12:35:54.137Z,0.50
2022-10-23T12:38:26.704Z,0.52
2022-10-23T12:41:11.361Z,0.57
2022-10-23T12:43:38.956Z,0.50
2022-10-23T12:46:20.147Z,0.50
2022-10-23T12:48:56.501Z,0.88
2022-10-23T12:51:32.983Z,0.73
2022-10-23T12:53:59.947Z,0.95
2022-10-23T12:56:29.541Z,0.70
2022-10-23T12:59:02.387Z,0.63
2022-10-23T13:01:31.870Z,7.25
2022-10-23T13:06:50.029Z,2.15
2022-10-23T13:09:39.386Z,0.40
2022-10-23T13:12:25.236Z,0.55
2022-10-23T13:14:56.191Z,0.70
2022-10-23T13:17:34.110Z,0.52
2022-10-23T13:20:24.429Z,0.50
2022-10-23T13:23:00.566Z,0.50
2022-10-23T13:25:27.636Z,0.50
2022-10-23T13:28:08.366Z,0.55
2022-10-23T13:30:38.527Z,0.50
2022-10-23T13:33:41.344Z,0.50
2022-10-23T13:36:13.806Z,0.57
2022-10-23T13:38:41.571Z,0.50
2022-10-23T13:41:15.846Z,0.70
2022-10-23T13:43:43.338Z,0.70
2022-10-23T13:46:21.215Z,0.80
2022-10-23T13:48:48.499Z,0.60
2022-10-23T13:51:19.662Z,0.80
2022-10-23T13:53:46.343Z,0.50
2022-10-23T13:56:13.859Z,0.50
2022-10-23T13:58:40.247Z,0.68
2022-10-23T14:01:07.371Z,0.70
2022-10-23T14:03:33.823Z,0.52
2022-10-23T14:06:01.274Z,0.50
2022-10-23T14:08:27.662Z,0.60
2022-10-23T14:10:54.045Z,0.60
2022-10-23T14:13:20.438Z,0.50
2022-10-23T14:15:55.830Z,0.50
2022-10-23T14:18:22.382Z,0.50
2022-10-23T14:20:48.920Z,0.57
2022-10-23T14:23:15.373Z,0.70
2022-10-23T14:25:41.770Z,0.60
2022-10-23T14:28:08.189Z,0.45
2022-10-23T14:30:37.154Z,0.50
2022-10-23T14:33:04.479Z,0.50
2022-10-23T14:35:30.928Z,0.70
2022-10-23T14:37:58.441Z,0.40
2022-10-23T14:40:25.368Z,0.60
2022-10-23T14:42:51.753Z,0.68
2022-10-23T14:45:18.193Z,0.82
2022-10-23T14:47:44.835Z,0.70
2022-10-23T14:50:12.086Z,0.52
2022-10-23T14:52:38.473Z,0.70
2022-10-23T14:55:05.191Z,0.70
2022-10-23T14:57:31.565Z,0.60
2022-10-23T14:59:57.957Z,0.60
2022-10-23T15:02:24.375Z,0.63
2022-10-23T15:04:50.783Z,0.98
2022-10-23T15:07:17.315Z,0.60
2022-10-23T15:09:43.693Z,1.27
2022-10-23T15:12:10.093Z,0.70
2022-10-23T15:14:36.503Z,0.88
2022-10-23T15:17:03.685Z,1.40
2022-10-23T15:19:30.160Z,0.88
2022-10-23T15:21:56.537Z,0.98
2022-10-23T15:24:23.064Z,1.13
2022-10-23T15:26:51.417Z,0.73
2022-10-23T15:29:19.246Z,0.60
2022-10-23T15:31:53.651Z,0.88
2022-10-23T15:34:24.004Z,0.63
2022-10-23T15:36:51.315Z,1.00
2022-10-23T15:39:21.606Z,0.93
2022-10-23T15:41:51.458Z,0.80
2022-10-23T15:44:20.337Z,0.93
2022-10-23T15:46:48.257Z,0.82
2022-10-23T15:49:15.389Z,1.08
2022-10-23T15:51:42.831Z,0.80
2022-10-23T15:54:16.265Z,0.75
2022-10-23T15:56:43.490Z,0.70
2022-10-23T15:59:09.987Z,1.05
2022-10-23T16:01:37.566Z,0.80
2022-10-23T16:04:04.276Z,0.80
2022-10-23T16:06:31.150Z,1.25
2022-10-23T16:08:58.054Z,0.70
2022-10-23T16:11:27.289Z,0.80
2022-10-23T16:13:54.950Z,0.90
2022-10-23T16:16:21.384Z,1.20
2022-10-23T16:18:48.567Z,0.90
2022-10-23T16:21:25.911Z,0.85
2022-10-23T16:23:55.011Z,0.90
2022-10-23T16:26:22.360Z,0.90
2022-10-23T16:28:56.101Z,1.02
2022-10-23T16:31:23.435Z,1.20
2022-10-23T16:33:51.117Z,0.90
2022-10-23T16:36:18.674Z,0.88
2022-10-23T16:39:19.572Z,0.90
2022-10-23T16:42:05.257Z,1.10
2022-10-23T16:44:56.693Z,0.80
2022-10-23T16:47:23.151Z,1.20
2022-10-23T16:49:49.571Z,1.17
2022-10-23T16:52:16.183Z,0.80
2022-10-23T16:54:43.437Z,0.80
2022-10-23T16:57:09.813Z,1.50
2022-10-23T16:59:36.906Z,2.13
2022-10-23T17:02:03.438Z,4.50
2022-10-23T17:04:29.923Z,2.15
2022-10-23T17:06:56.463Z,3.60
2022-10-23T17:09:23.550Z,2.45
2022-10-23T17:11:52.957Z,2.90
2022-10-23T17:14:21.074Z,2.13
2022-10-23T17:16:50.099Z,2.95
2022-10-23T17:22:11.072Z,2.50
2022-10-23T17:24:38.592Z,5.93
2022-10-23T17:27:05.608Z,5.72
2022-10-23T17:29:32.046Z,2.63
2022-10-23T17:31:58.917Z,2.80
2022-10-23T17:34:26.044Z,2.90
2022-10-23T17:36:54.509Z,1.42
2022-10-23T17:39:24.970Z,2.53
2022-10-23T17:41:51.746Z,2.75
2022-10-23T17:44:18.169Z,1.55
2022-10-23T17:46:44.644Z,1.40
2022-10-23T17:49:11.915Z,1.30
2022-10-23T17:51:38.395Z,1.92
2022-10-23T17:54:07.865Z,1.60
2022-10-23T17:56:36.416Z,2.78
2022-10-23T17:59:07.274Z,2.90
2022-10-23T18:01:34.148Z,2.28
2022-10-23T18:04:02.773Z,2.20
2022-10-23T18:06:33.109Z,2.50
2022-10-23T18:09:01.335Z,3.10
2022-10-23T18:11:37.356Z,2.60
2022-10-23T18:16:30.787Z,2.28
2022-10-23T18:19:00.122Z,1.85
2022-10-23T18:21:27.063Z,2.95
2022-10-23T18:23:53.717Z,2.45
2022-10-23T18:26:23.090Z,1.45
2022-10-23T18:28:52.046Z,1.25
2022-10-23T18:31:19.898Z,1.13
2022-10-23T18:33:47.263Z,1.15
2022-10-23T18:36:24.973Z,1.40
2022-10-23T18:38:51.613Z,1.42
2022-10-23T18:41:19.582Z,0.93
2022-10-23T18:43:46.158Z,1.25
2022-10-23T18:46:13.490Z,1.15
2022-10-23T18:48:40.771Z,1.85
2022-10-23T18:51:32.161Z,1.10
2022-10-23T18:54:01.048Z,0.77
2022-10-23T18:56:27.960Z,1.20
2022-10-23T18:58:56.896Z,1.10
2022-10-23T19:01:24.451Z,1.30
2022-10-23T19:03:51.048Z,1.05
2022-10-23T19:06:17.705Z,0.93
2022-10-23T19:08:44.418Z,1.10
2022-10-23T19:11:12.331Z,1.25
2022-10-23T19:13:40.276Z,1.15
2022-10-23T19:16:12.286Z,1.20
2022-10-23T19:18:42.362Z,1.00
2022-10-23T19:21:09.244Z,1.10
2022-10-23T19:23:37.893Z,1.52
2022-10-23T19:26:08.794Z,1.00
2022-10-23T19:28:37.853Z,1.50
2022-10-23T19:31:04.828Z,1.00
2022-10-23T19:33:32.491Z,1.63
2022-10-23T19:36:01.249Z,1.67
2022-10-23T19:38:31.769Z,1.30
2022-10-23T19:40:58.166Z,1.23
2022-10-23T19:43:24.571Z,1.17
2022-10-23T19:45:50.972Z,1.23
2022-10-23T19:48:17.393Z,1.75
2022-10-23T19:50:44.175Z,1.42
2022-10-23T19:53:10.645Z,1.02
2022-10-23T19:55:37.150Z,1.10
2022-10-23T19:58:03.549Z,1.98
2022-10-23T20:00:30.146Z,1.27
2022-10-23T20:02:56.539Z,1.10
2022-10-23T20:05:22.964Z,1.60
2022-10-23T20:07:50.646Z,1.95
2022-10-23T20:10:17.174Z,1.55
2022-10-23T20:12:47.497Z,1.35
2022-10-23T20:15:23.454Z,1.08
2022-10-23T20:17:49.827Z,1.30
2022-10-23T20:20:16.354Z,1.60
2022-10-23T20:22:44.103Z,1.30
2022-10-23T20:25:10.752Z,1.58
2022-10-23T20:30:09.116Z,1.67
2022-10-23T20:32:35.560Z,0.95
2022-10-23T20:35:01.947Z,1.17
2022-10-23T20:37:28.346Z,0.95
2022-10-23T20:39:55.302Z,1.58
2022-10-23T20:42:21.897Z,1.38
2022-10-23T20:44:48.272Z,1.02
2022-10-23T20:47:14.703Z,1.13
2022-10-23T20:49:41.079Z,1.23
2022-10-23T20:52:07.483Z,1.42
2022-10-23T20:54:35.833Z,1.00
2022-10-23T20:57:02.223Z,1.45
2022-10-23T20:59:28.706Z,1.40
2022-10-23T21:01:56.241Z,0.95
2022-10-23T21:04:26.524Z,1.55
2022-10-23T21:07:09.406Z,1.20
2022-10-23T21:09:37.647Z,1.20
2022-10-23T21:12:04.412Z,1.02
2022-10-23T21:14:30.899Z,1.10
2022-10-23T21:16:57.300Z,1.40
2022-10-23T21:19:23.738Z,1.10
2022-10-23T21:21:50.162Z,0.90
2022-10-23T21:24:17.331Z,1.00
2022-10-23T21:26:44.613Z,0.93
2022-10-23T21:29:19.693Z,1.00
2022-10-23T21:31:59.554Z,1.58
2022-10-23T21:34:27.079Z,1.00
2022-10-23T21:37:12.418Z,1.00
2022-10-23T21:39:40.625Z,0.90
2022-10-23T21:42:07.084Z,1.15
2022-10-23T21:44:33.590Z,1.00
2022-10-23T21:46:59.998Z,1.50
2022-10-23T21:49:26.473Z,0.93
2022-10-23T21:51:54.653Z,1.13
2022-10-23T21:54:21.060Z,0.82
2022-10-23T21:56:51.033Z,1.10
2022-10-23T21:59:24.057Z,0.90
2022-10-23T22:01:51.526Z,1.13
2022-10-23T22:04:19.336Z,0.98
2022-10-23T22:06:47.659Z,1.08
2022-10-23T22:09:17.322Z,1.52
2022-10-23T22:11:43.743Z,1.10
2022-10-23T22:14:10.593Z,1.40
2022-10-23T22:16:37.195Z,1.10
2022-10-23T22:19:03.846Z,1.42
2022-10-23T22:21:30.910Z,1.20
2022-10-23T22:23:58.917Z,0.90
2022-10-23T22:26:28.793Z,1.10
2022-10-23T22:28:57.405Z,1.38
2022-10-23T22:31:27.537Z,1.10
2022-10-23T22:33:55.131Z,1.42
2022-10-23T22:36:21.769Z,1.30
2022-10-23T22:38:48.542Z,1.33
2022-10-23T22:41:15.550Z,1.50
2022-10-23T22:43:41.933Z,1.35
2022-10-23T22:46:17.126Z,1.42
2022-10-23T22:48:43.960Z,1.47
2022-10-23T22:51:15.834Z,1.55
2022-10-23T22:53:43.781Z,1.23
2022-10-23T22:56:13.030Z,1.48
2022-10-23T22:58:39.670Z,1.10
2022-10-23T23:01:14.462Z,1.23
2022-10-23T23:03:41.236Z,1.27
2022-10-23T23:06:09.267Z,1.30
2022-10-23T23:08:37.505Z,1.10
2022-10-23T23:11:05.304Z,1.20
2022-10-23T23:13:32.148Z,1.40
2022-10-23T23:15:58.543Z,1.50
2022-10-23T23:18:25.718Z,1.42
2022-10-23T23:20:52.108Z,1.70
2022-10-23T23:23:18.949Z,2.20
2022-10-23T23:25:49.207Z,1.40
2022-10-23T23:28:17.699Z,1.70
2022-10-23T23:33:19.282Z,1.50
2022-10-23T23:35:46.698Z,1.33
2022-10-23T23:38:13.205Z,1.10
2022-10-23T23:40:40.201Z,1.63
2022-10-23T23:43:06.851Z,1.75
2022-10-23T23:45:33.277Z,2.15
2022-10-23T23:47:59.698Z,1.77
2022-10-23T23:50:27.831Z,0.98
2022-10-23T23:52:54.239Z,1.20
2022-10-23T23:55:20.650Z,1.70
2022-10-23T23:57:47.347Z,1.25
